Aviation Digital Data Service (ADDS)

Output produced by METARs form (1009 UTC 04 December 2016)
found at http://aviationweather.gov/adds/metars/
 
KAEX 040549Z 0406/0506 03010KT P6SM FEW004 OVC025 
     FM040800 05010KT P6SM -RA OVC015 
     FM041200 02006KT 4SM -RA BR OVC004 
     FM041800 36006KT 1/4SM FG OVC007 
     FM050000 36004KT 4SM -RA BR OVC004